createdAt,value
2022-12-31T00:01:07.726Z,0.90
2022-12-31T00:03:34.543Z,0.98
2022-12-31T00:06:00.998Z,1.42
2022-12-31T00:08:28.083Z,1.70
2022-12-31T00:10:54.742Z,2.63
2022-12-31T00:13:21.661Z,2.78
2022-12-31T00:15:48.065Z,2.90
2022-12-31T00:18:14.480Z,3.75
2022-12-31T00:20:41.799Z,3.78
2022-12-31T00:23:09.112Z,3.40
2022-12-31T00:25:36.339Z,2.05
2022-12-31T00:28:03.640Z,3.70
2022-12-31T00:30:31.535Z,2.85
2022-12-31T00:32:58.041Z,3.08
2022-12-31T00:35:24.556Z,3.15
2022-12-31T00:37:51.701Z,3.83
2022-12-31T00:40:18.130Z,3.58
2022-12-31T00:42:44.540Z,5.88
2022-12-31T00:45:11.047Z,4.20
2022-12-31T00:47:37.513Z,3.67
2022-12-31T00:50:04.106Z,4.65
2022-12-31T00:52:30.569Z,3.20
2022-12-31T00:54:57.850Z,3.80
2022-12-31T00:57:24.338Z,4.90
2022-12-31T00:59:50.865Z,3.80
2022-12-31T01:02:17.422Z,3.00
2022-12-31T01:04:44.574Z,3.38
2022-12-31T01:07:11.089Z,4.10
2022-12-31T01:09:37.503Z,4.00
2022-12-31T01:12:04.088Z,3.42
2022-12-31T01:14:32.652Z,3.28
2022-12-31T01:16:59.139Z,3.30
2022-12-31T01:19:26.980Z,3.30
2022-12-31T01:21:53.631Z,2.70
2022-12-31T01:24:20.446Z,3.13
2022-12-31T01:26:48.827Z,2.67
2022-12-31T01:29:16.902Z,1.90
2022-12-31T01:31:43.693Z,2.15
2022-12-31T01:34:10.373Z,2.45
2022-12-31T01:36:37.521Z,2.30
2022-12-31T01:39:05.550Z,2.00
2022-12-31T01:41:37.685Z,2.15
2022-12-31T01:44:13.377Z,1.75
2022-12-31T01:46:39.926Z,1.75
2022-12-31T01:49:10.686Z,1.67
2022-12-31T01:51:37.565Z,1.73
2022-12-31T01:54:05.867Z,1.60
2022-12-31T01:56:32.686Z,0.85
2022-12-31T01:58:59.765Z,0.90
2022-12-31T02:01:29.168Z,0.65
2022-12-31T02:03:56.756Z,0.50
2022-12-31T02:06:31.039Z,0.45
2022-12-31T02:08:57.869Z,0.40
2022-12-31T02:11:26.452Z,0.35
2022-12-31T02:13:58.355Z,0.30
2022-12-31T02:16:32.585Z,0.10
2022-12-31T02:19:18.371Z,0.20
2022-12-31T02:21:53.279Z,0.20
2022-12-31T02:24:19.659Z,0.20
2022-12-31T02:26:53.582Z,0.20
2022-12-31T02:29:51.375Z,0.20
2022-12-31T02:32:24.576Z,0.20
2022-12-31T02:34:53.300Z,0.10
2022-12-31T02:37:21.379Z,0.22
2022-12-31T02:39:47.972Z,0.10
2022-12-31T02:42:14.504Z,0.22
2022-12-31T02:44:41.927Z,0.17
2022-12-31T02:47:08.360Z,0.20
2022-12-31T02:49:53.171Z,0.57
2022-12-31T02:52:39.762Z,0.30
2022-12-31T02:55:15.361Z,0.32
2022-12-31T02:58:00.950Z,0.43
2022-12-31T03:00:47.132Z,0.32
2022-12-31T03:03:13.683Z,0.40
2022-12-31T03:05:44.671Z,0.40
2022-12-31T03:08:11.188Z,0.30
2022-12-31T03:10:37.644Z,0.25
2022-12-31T03:13:04.289Z,0.30
2022-12-31T03:15:32.438Z,0.30
2022-12-31T03:17:59.015Z,0.32
2022-12-31T03:20:47.085Z,0.50
2022-12-31T03:23:14.824Z,0.20
2022-12-31T03:25:41.242Z,0.20
2022-12-31T03:28:09.012Z,0.22
2022-12-31T03:30:36.793Z,0.20
2022-12-31T03:33:04.086Z,0.10
2022-12-31T03:35:31.980Z,0.38
2022-12-31T03:37:58.575Z,0.25
2022-12-31T03:40:25.887Z,0.20
2022-12-31T03:42:52.571Z,0.20
2022-12-31T03:45:19.071Z,0.38
2022-12-31T03:47:46.494Z,0.20
2022-12-31T03:50:14.163Z,0.30
2022-12-31T03:52:40.774Z,0.35
2022-12-31T03:55:07.512Z,0.40
2022-12-31T03:57:33.986Z,0.35
2022-12-31T04:00:00.516Z,0.25
2022-12-31T04:02:29.342Z,0.20
2022-12-31T04:04:56.075Z,0.22
2022-12-31T04:07:22.694Z,0.20
2022-12-31T04:09:50.003Z,0.30
2022-12-31T04:12:16.794Z,0.30
2022-12-31T04:14:43.346Z,0.30
2022-12-31T04:17:09.833Z,0.30
2022-12-31T04:19:37.522Z,0.40
2022-12-31T04:22:04.466Z,0.30
2022-12-31T04:24:30.899Z,0.25
2022-12-31T04:27:02.089Z,0.47
2022-12-31T04:29:31.848Z,0.22
2022-12-31T04:31:58.434Z,0.30
2022-12-31T04:34:24.860Z,0.20
2022-12-31T04:36:51.520Z,0.47
2022-12-31T04:39:17.946Z,0.30
2022-12-31T04:41:44.360Z,0.45
2022-12-31T04:44:10.798Z,0.30
2022-12-31T04:46:38.077Z,0.20
2022-12-31T04:49:04.597Z,0.20
2022-12-31T04:51:31.247Z,0.63
2022-12-31T04:53:58.229Z,0.40
2022-12-31T04:56:24.792Z,0.20
2022-12-31T04:58:51.234Z,0.35
2022-12-31T05:01:17.729Z,0.38
2022-12-31T05:03:45.072Z,0.60
2022-12-31T05:06:14.009Z,0.30
2022-12-31T05:08:40.742Z,0.30
2022-12-31T05:11:07.159Z,0.55
2022-12-31T05:13:33.926Z,0.30
2022-12-31T05:16:00.931Z,0.30
2022-12-31T05:18:27.773Z,0.30
2022-12-31T05:20:54.179Z,0.30
2022-12-31T05:23:20.640Z,0.30
2022-12-31T05:25:47.773Z,0.50
2022-12-31T05:28:14.716Z,0.68
2022-12-31T05:30:41.599Z,0.50
2022-12-31T05:33:08.097Z,0.45
2022-12-31T05:35:34.816Z,0.70
2022-12-31T05:38:01.521Z,0.40
2022-12-31T05:40:28.367Z,0.40
2022-12-31T05:42:55.195Z,0.80
2022-12-31T05:45:26.814Z,0.50
2022-12-31T05:47:56.696Z,0.45
2022-12-31T05:50:23.135Z,0.60
2022-12-31T05:52:55.223Z,0.40
2022-12-31T05:55:27.191Z,0.57
2022-12-31T05:57:53.775Z,0.38
2022-12-31T06:00:20.343Z,0.65
2022-12-31T06:02:47.140Z,0.60
2022-12-31T06:05:13.649Z,0.60
2022-12-31T06:07:40.066Z,0.50
2022-12-31T06:10:06.868Z,0.57
2022-12-31T06:12:33.332Z,0.80
2022-12-31T06:14:59.734Z,0.52
2022-12-31T06:17:26.150Z,0.68
2022-12-31T06:19:52.586Z,0.70
2022-12-31T06:22:19.025Z,0.80
2022-12-31T06:24:46.461Z,0.88
2022-12-31T06:27:12.890Z,0.70
2022-12-31T06:29:39.571Z,0.63
2022-12-31T06:32:06.326Z,0.70
2022-12-31T06:34:32.786Z,0.70
2022-12-31T06:36:59.386Z,0.60
2022-12-31T06:39:26.185Z,0.73
2022-12-31T06:41:52.662Z,0.80
2022-12-31T06:44:22.438Z,0.50
2022-12-31T06:46:49.853Z,0.60
2022-12-31T06:49:16.480Z,1.00
2022-12-31T06:51:42.878Z,1.02
2022-12-31T06:54:09.270Z,0.73
2022-12-31T06:56:35.880Z,0.75
2022-12-31T06:59:07.468Z,0.88
2022-12-31T07:01:46.941Z,0.80
2022-12-31T07:04:24.647Z,0.77
2022-12-31T07:06:53.815Z,0.68
2022-12-31T07:09:33.891Z,1.00
2022-12-31T07:12:31.582Z,0.60
2022-12-31T07:15:05.534Z,0.70
2022-12-31T07:17:44.971Z,0.70
2022-12-31T07:20:16.148Z,0.80
2022-12-31T07:22:42.866Z,0.85
2022-12-31T07:25:13.985Z,1.08
2022-12-31T07:27:56.338Z,0.65
2022-12-31T07:30:46.340Z,0.70
2022-12-31T07:33:28.016Z,0.73
2022-12-31T07:36:16.800Z,1.17
2022-12-31T07:38:43.187Z,0.60
2022-12-31T07:41:23.069Z,0.60
2022-12-31T07:43:55.802Z,0.70
2022-12-31T07:46:26.955Z,0.75
2022-12-31T07:48:53.867Z,0.98
2022-12-31T07:51:20.473Z,0.50
2022-12-31T07:53:46.902Z,0.63
2022-12-31T07:56:13.482Z,0.65
2022-12-31T07:58:39.945Z,0.80
2022-12-31T08:01:13.851Z,0.75
2022-12-31T08:04:01.399Z,0.70
2022-12-31T08:06:40.309Z,0.70
2022-12-31T08:09:12.739Z,0.90
2022-12-31T08:11:59.410Z,0.60
2022-12-31T08:14:26.811Z,0.55
2022-12-31T08:16:56.109Z,0.70
2022-12-31T08:19:24.839Z,0.57
2022-12-31T08:22:02.897Z,0.77
2022-12-31T08:24:35.991Z,0.80
2022-12-31T08:27:12.539Z,0.80
2022-12-31T08:29:51.465Z,0.63
2022-12-31T08:32:18.085Z,0.73
2022-12-31T08:34:56.561Z,0.60
2022-12-31T08:37:28.861Z,1.10
2022-12-31T08:40:07.688Z,0.70
2022-12-31T08:42:42.965Z,0.80
2022-12-31T08:45:09.579Z,0.65
2022-12-31T08:47:46.751Z,1.17
2022-12-31T08:50:14.567Z,0.88
2022-12-31T08:52:41.416Z,0.75
2022-12-31T08:55:08.133Z,0.68
2022-12-31T08:57:39.102Z,1.05
2022-12-31T09:00:18.861Z,1.25
2022-12-31T09:03:03.781Z,0.68
2022-12-31T09:05:35.427Z,0.68
2022-12-31T09:08:31.479Z,1.08
2022-12-31T09:11:07.736Z,0.80
2022-12-31T09:13:40.189Z,1.27
2022-12-31T09:16:21.062Z,1.17
2022-12-31T09:18:47.864Z,0.82
2022-12-31T09:21:15.219Z,1.00
2022-12-31T09:23:42.859Z,1.00
2022-12-31T09:26:28.329Z,0.93
2022-12-31T09:29:02.680Z,1.00
2022-12-31T09:31:48.005Z,1.15
2022-12-31T09:34:21.360Z,0.88
2022-12-31T09:36:52.663Z,0.90
2022-12-31T09:39:31.052Z,0.80
2022-12-31T09:42:00.511Z,0.95
2022-12-31T09:44:49.080Z,1.10
2022-12-31T09:47:28.355Z,1.02
2022-12-31T09:50:16.422Z,1.35
2022-12-31T09:53:06.739Z,0.98
2022-12-31T09:55:51.047Z,0.98
2022-12-31T09:58:29.727Z,0.80
2022-12-31T10:01:13.627Z,1.02
2022-12-31T10:04:06.599Z,1.10
2022-12-31T10:06:39.103Z,1.00
2022-12-31T10:09:20.939Z,0.65
2022-12-31T10:11:57.243Z,1.10
2022-12-31T10:14:47.325Z,1.02
2022-12-31T10:17:21.899Z,0.90
2022-12-31T10:20:02.449Z,0.90
2022-12-31T10:22:28.930Z,1.10
2022-12-31T10:25:14.105Z,1.20
2022-12-31T10:27:46.747Z,0.95
2022-12-31T10:30:20.823Z,1.15
2022-12-31T10:33:07.920Z,0.90
2022-12-31T10:35:40.168Z,0.80
2022-12-31T10:38:09.475Z,0.93
2022-12-31T10:40:55.098Z,1.00
2022-12-31T10:43:40.313Z,1.20
2022-12-31T10:46:06.779Z,0.90
2022-12-31T10:48:48.604Z,1.10
2022-12-31T10:51:19.148Z,1.02
2022-12-31T10:54:06.609Z,1.30
2022-12-31T10:56:36.133Z,0.95
2022-12-31T10:59:02.750Z,0.80
2022-12-31T11:01:49.515Z,1.17
2022-12-31T11:04:16.057Z,1.25
2022-12-31T11:06:45.649Z,1.08
2022-12-31T11:09:26.505Z,1.25
2022-12-31T11:11:56.337Z,1.20
2022-12-31T11:14:22.700Z,1.30
2022-12-31T11:17:08.051Z,0.90
2022-12-31T11:19:53.253Z,0.88
2022-12-31T11:22:38.590Z,1.35
2022-12-31T11:25:11.051Z,1.05
2022-12-31T11:27:58.741Z,0.90
2022-12-31T11:30:40.613Z,1.00
2022-12-31T11:33:13.193Z,0.90
2022-12-31T11:35:39.618Z,1.08
2022-12-31T11:38:14.549Z,1.00
2022-12-31T11:41:16.544Z,1.00
2022-12-31T11:43:45.882Z,1.00
2022-12-31T11:46:16.756Z,1.15
2022-12-31T11:48:50.759Z,1.48
2022-12-31T11:51:34.678Z,1.27
2022-12-31T11:54:19.947Z,1.30
2022-12-31T11:56:51.184Z,1.05
2022-12-31T11:59:20.054Z,1.08
2022-12-31T12:01:51.946Z,1.15
2022-12-31T12:04:20.636Z,1.25
2022-12-31T12:06:48.021Z,1.10
2022-12-31T12:09:16.923Z,1.02
2022-12-31T12:11:43.465Z,1.08
2022-12-31T12:14:26.692Z,1.13
2022-12-31T12:17:02.412Z,1.00
2022-12-31T12:19:31.791Z,1.20
2022-12-31T12:21:59.011Z,0.93
2022-12-31T12:24:26.759Z,1.10
2022-12-31T12:26:54.129Z,1.10
2022-12-31T12:29:22.477Z,1.23
2022-12-31T12:32:15.008Z,1.20
2022-12-31T12:34:47.566Z,1.00
2022-12-31T12:37:27.520Z,1.00
2022-12-31T12:40:00.882Z,1.33
2022-12-31T12:42:27.920Z,1.17
2022-12-31T12:45:01.748Z,2.10
2022-12-31T12:47:28.371Z,1.23
2022-12-31T12:49:54.959Z,1.15
2022-12-31T12:52:33.060Z,1.20
2022-12-31T12:55:05.228Z,1.42
2022-12-31T12:57:31.981Z,1.30
2022-12-31T13:00:09.217Z,1.35
2022-12-31T13:02:48.849Z,1.42
2022-12-31T13:05:34.451Z,1.30
2022-12-31T13:08:19.815Z,1.42
2022-12-31T13:11:06.083Z,1.30
2022-12-31T13:13:39.766Z,1.40
2022-12-31T13:16:11.281Z,1.13
2022-12-31T13:18:58.429Z,1.58
2022-12-31T13:21:35.694Z,1.40
2022-12-31T13:24:02.133Z,1.02
2022-12-31T13:26:35.328Z,1.05
2022-12-31T13:29:02.407Z,1.20
2022-12-31T13:31:34.418Z,1.30
2022-12-31T13:34:05.715Z,1.15
2022-12-31T13:36:33.150Z,1.48
2022-12-31T13:39:01.454Z,1.52
2022-12-31T13:41:46.809Z,1.27
2022-12-31T13:44:16.924Z,1.30
2022-12-31T13:46:46.641Z,1.33
2022-12-31T13:49:16.969Z,1.65
2022-12-31T13:51:44.890Z,1.20
2022-12-31T13:54:30.965Z,1.52
2022-12-31T13:56:59.420Z,1.40
2022-12-31T13:59:31.347Z,1.35
2022-12-31T14:01:57.928Z,1.40
2022-12-31T14:04:30.399Z,1.60
2022-12-31T14:07:16.060Z,1.23
2022-12-31T14:09:46.683Z,1.95
2022-12-31T14:12:18.452Z,1.40
2022-12-31T14:15:04.086Z,1.77
2022-12-31T14:17:48.992Z,1.75
2022-12-31T14:20:34.390Z,1.60
2022-12-31T14:23:02.616Z,1.88
2022-12-31T14:25:31.944Z,1.70
2022-12-31T14:27:59.403Z,1.77
2022-12-31T14:30:28.556Z,1.80
2022-12-31T14:33:21.419Z,1.10
2022-12-31T14:36:01.020Z,1.50
2022-12-31T14:38:47.681Z,1.75
2022-12-31T14:41:22.946Z,1.60
2022-12-31T14:43:55.238Z,1.90
2022-12-31T14:46:40.060Z,1.40
2022-12-31T14:49:20.067Z,1.90
2022-12-31T14:51:47.913Z,1.52
2022-12-31T14:54:28.885Z,1.80
2022-12-31T14:56:55.737Z,1.95
2022-12-31T14:59:25.267Z,2.20
2022-12-31T15:01:51.854Z,1.45
2022-12-31T15:04:33.669Z,1.83
2022-12-31T15:07:04.853Z,1.92
2022-12-31T15:09:51.350Z,1.60
2022-12-31T15:12:17.755Z,1.88
2022-12-31T15:15:05.313Z,1.60
2022-12-31T15:17:34.805Z,1.80
2022-12-31T15:20:01.258Z,1.55
2022-12-31T15:22:27.742Z,1.83
2022-12-31T15:24:54.180Z,1.55
2022-12-31T15:27:30.035Z,1.60
2022-12-31T15:29:56.483Z,1.40
2022-12-31T15:32:26.537Z,1.90
2022-12-31T15:35:22.358Z,1.20
2022-12-31T15:37:57.983Z,1.33
2022-12-31T15:40:28.841Z,1.45
2022-12-31T15:42:58.844Z,1.45
2022-12-31T15:45:27.880Z,1.60
2022-12-31T15:47:57.470Z,1.52
2022-12-31T15:50:25.037Z,1.58
2022-12-31T15:53:01.977Z,1.17
2022-12-31T15:55:49.453Z,1.50
2022-12-31T15:58:17.024Z,1.70
2022-12-31T16:01:12.958Z,1.17
2022-12-31T16:03:43.618Z,1.30
2022-12-31T16:06:14.585Z,1.40
2022-12-31T16:08:43.950Z,1.42
2022-12-31T16:11:10.683Z,1.70
2022-12-31T16:13:44.610Z,1.40
2022-12-31T16:16:24.784Z,1.20
2022-12-31T16:18:51.499Z,1.27
2022-12-31T16:21:25.621Z,1.63
2022-12-31T16:23:53.053Z,1.33
2022-12-31T16:26:19.638Z,1.85
2022-12-31T16:28:49.187Z,1.27
2022-12-31T16:31:16.844Z,2.13
2022-12-31T16:33:43.995Z,2.83
2022-12-31T16:36:23.529Z,1.83
2022-12-31T16:38:50.186Z,2.30
2022-12-31T16:41:16.855Z,2.00
2022-12-31T16:43:43.809Z,1.85
2022-12-31T16:46:21.755Z,1.80
2022-12-31T16:48:49.807Z,1.65
2022-12-31T16:51:18.776Z,1.70
2022-12-31T16:53:45.399Z,1.80
2022-12-31T16:56:19.484Z,2.50
2022-12-31T16:58:46.088Z,2.78
2022-12-31T17:01:20.682Z,3.10
2022-12-31T17:03:50.355Z,2.40
2022-12-31T17:06:17.951Z,2.42
2022-12-31T17:08:47.598Z,1.90
2022-12-31T17:11:23.552Z,1.60
2022-12-31T17:13:55.013Z,2.28
2022-12-31T17:16:21.624Z,3.25
2022-12-31T17:18:48.345Z,2.70
2022-12-31T17:21:14.907Z,2.95
2022-12-31T17:23:41.937Z,3.28
2022-12-31T17:26:10.088Z,2.97
2022-12-31T17:28:47.237Z,2.95
2022-12-31T17:31:25.904Z,3.10
2022-12-31T17:34:05.184Z,2.90
2022-12-31T17:36:31.602Z,3.95
2022-12-31T17:39:15.405Z,2.83
2022-12-31T17:41:44.489Z,2.20
2022-12-31T17:44:15.186Z,2.30
2022-12-31T17:46:42.144Z,2.95
2022-12-31T17:49:11.068Z,1.98
2022-12-31T17:51:41.224Z,2.40
2022-12-31T17:54:14.859Z,2.30
2022-12-31T17:56:41.696Z,2.03
2022-12-31T17:59:08.340Z,2.35
2022-12-31T18:01:34.900Z,2.72
2022-12-31T18:04:01.470Z,3.10
2022-12-31T18:06:27.919Z,3.20
2022-12-31T18:08:54.308Z,2.97
2022-12-31T18:11:22.190Z,2.83
2022-12-31T18:13:50.077Z,2.30
2022-12-31T18:16:18.381Z,2.08
2022-12-31T18:18:45.301Z,1.73
2022-12-31T18:21:32.614Z,2.10
2022-12-31T18:26:26.040Z,2.72
2022-12-31T18:28:52.758Z,2.90
2022-12-31T18:31:20.637Z,2.30
2022-12-31T18:33:47.976Z,2.65
2022-12-31T18:36:15.455Z,2.70
2022-12-31T18:38:41.940Z,2.78
2022-12-31T18:41:15.384Z,3.35
2022-12-31T18:43:41.850Z,2.80
2022-12-31T18:46:11.988Z,2.60
2022-12-31T18:48:41.255Z,2.90
2022-12-31T18:51:14.650Z,2.28
2022-12-31T18:53:41.126Z,2.55
2022-12-31T18:56:11.032Z,2.45
2022-12-31T18:58:37.484Z,2.33
2022-12-31T19:01:04.154Z,2.30
2022-12-31T19:03:30.910Z,2.83
2022-12-31T19:05:57.378Z,3.28
2022-12-31T19:08:23.868Z,3.65
2022-12-31T19:10:51.161Z,3.20
2022-12-31T19:13:18.426Z,2.85
2022-12-31T19:15:46.618Z,2.65
2022-12-31T19:18:13.107Z,3.25
2022-12-31T19:20:39.693Z,2.88
2022-12-31T19:23:06.141Z,3.80
2022-12-31T19:25:35.912Z,3.50
2022-12-31T19:28:03.492Z,3.40
2022-12-31T19:30:31.488Z,2.85
2022-12-31T19:32:59.140Z,3.13
2022-12-31T19:35:26.379Z,2.80
2022-12-31T19:37:53.914Z,2.63
2022-12-31T19:40:25.023Z,2.35
2022-12-31T19:42:53.442Z,5.05
2022-12-31T19:45:20.755Z,2.97
2022-12-31T19:47:47.835Z,2.75
2022-12-31T19:50:18.792Z,3.10
2022-12-31T19:52:46.046Z,2.40
2022-12-31T19:55:13.883Z,3.05
2022-12-31T19:57:40.658Z,2.65
2022-12-31T20:00:07.517Z,2.70
2022-12-31T20:02:38.432Z,2.47
2022-12-31T20:05:05.147Z,2.45
2022-12-31T20:07:31.612Z,2.70
2022-12-31T20:09:58.057Z,3.10
2022-12-31T20:12:24.541Z,2.60
2022-12-31T20:14:51.112Z,3.28
2022-12-31T20:17:17.526Z,2.63
2022-12-31T20:19:43.981Z,3.10
2022-12-31T20:22:10.441Z,3.38
2022-12-31T20:24:36.854Z,2.95
2022-12-31T20:27:03.465Z,2.88
2022-12-31T20:29:29.902Z,2.92
2022-12-31T20:31:56.513Z,3.50
2022-12-31T20:34:22.880Z,3.05
2022-12-31T20:36:49.299Z,2.92
2022-12-31T20:39:15.700Z,2.80
2022-12-31T20:41:42.354Z,3.30
2022-12-31T20:44:09.030Z,2.80
2022-12-31T20:46:35.721Z,6.03
2022-12-31T20:49:02.721Z,6.13
2022-12-31T20:51:29.848Z,3.13
2022-12-31T20:53:57.737Z,3.53
2022-12-31T20:56:25.323Z,2.55
2022-12-31T20:58:51.812Z,3.20
2022-12-31T21:01:18.766Z,3.00
2022-12-31T21:06:33.501Z,2.70
2022-12-31T21:09:00.812Z,2.88
2022-12-31T21:11:46.006Z,3.15
2022-12-31T21:14:12.399Z,3.38
2022-12-31T21:16:38.905Z,3.22
2022-12-31T21:19:05.565Z,2.88
2022-12-31T21:21:32.090Z,2.78
2022-12-31T21:23:58.521Z,3.30
2022-12-31T21:26:24.921Z,3.03
2022-12-31T21:28:52.466Z,3.28
2022-12-31T21:31:18.960Z,2.40
2022-12-31T21:33:47.004Z,3.10
2022-12-31T21:36:13.872Z,2.47
2022-12-31T21:38:40.505Z,2.92
2022-12-31T21:41:07.592Z,2.90
2022-12-31T21:43:37.956Z,3.08
2022-12-31T21:46:05.439Z,2.88
2022-12-31T21:48:31.986Z,3.00
2022-12-31T21:51:09.222Z,11.18
2022-12-31T21:53:37.086Z,6.25
2022-12-31T21:56:11.477Z,3.22
2022-12-31T21:58:39.348Z,3.03
2022-12-31T22:01:25.318Z,3.50
2022-12-31T22:03:52.383Z,2.90
2022-12-31T22:06:22.804Z,3.95
2022-12-31T22:08:50.589Z,4.65
2022-12-31T22:11:17.889Z,6.40
2022-12-31T22:13:44.960Z,3.83
2022-12-31T22:16:13.127Z,3.55
2022-12-31T22:18:44.005Z,3.72
2022-12-31T22:21:18.894Z,3.00
2022-12-31T22:23:47.738Z,2.97
2022-12-31T22:26:15.402Z,3.58
2022-12-31T22:28:42.617Z,3.88
2022-12-31T22:31:09.517Z,3.75
2022-12-31T22:33:36.054Z,4.05
2022-12-31T22:36:05.767Z,4.80
2022-12-31T22:38:33.214Z,4.68
2022-12-31T22:41:19.246Z,3.88
2022-12-31T22:43:47.035Z,4.18
2022-12-31T22:46:18.456Z,5.07
2022-12-31T22:48:45.115Z,4.25
2022-12-31T22:51:12.213Z,3.90
2022-12-31T22:53:41.215Z,4.93
2022-12-31T22:56:08.119Z,6.55
2022-12-31T22:58:34.794Z,8.82
2022-12-31T23:01:04.147Z,21.58
2022-12-31T23:03:30.653Z,20.40
2022-12-31T23:05:57.166Z,50.72
2022-12-31T23:08:24.242Z,86.82
2022-12-31T23:11:01.040Z,139.00
2022-12-31T23:13:50.561Z,107.95
2022-12-31T23:16:36.519Z,123.20
2022-12-31T23:19:21.453Z,162.35
2022-12-31T23:22:06.777Z,101.75
2022-12-31T23:24:33.206Z,80.90
2022-12-31T23:26:59.612Z,65.57
2022-12-31T23:29:26.056Z,61.72
2022-12-31T23:31:53.105Z,60.25
2022-12-31T23:34:19.752Z,52.10
2022-12-31T23:36:46.170Z,49.83
2022-12-31T23:39:13.476Z,45.05
2022-12-31T23:41:40.070Z,39.38
2022-12-31T23:44:06.768Z,37.20
2022-12-31T23:46:33.492Z,46.08
2022-12-31T23:49:00.147Z,39.85
2022-12-31T23:51:26.648Z,37.33
2022-12-31T23:53:53.125Z,78.78
2022-12-31T23:56:23.668Z,56.60
2022-12-31T23:58:56.706Z,33.17
